Terminal Aerodrome Forecast
Issued by NWS

Home | Current Version | Previous Version | Text Only | Print | Product List | Glossary On
Versions: 1 2 3 4 5 6 7 8 9 10 11 12 13 14 15 16
000
FTUS43 KDDC 171720
TAFGCK
TAF
KGCK 171720Z 1718/1818 30005KT P6SM FEW060 BKN100
     FM180100 17009KT P6SM VCTS SCT250CB
     FM180700 18007KT P6SM VCTS SCT200CB WS020/20035KT
     FM181000 19005KT P6SM SCT200 WS020/22040KT=

USA.gov is the U.S. government's official web portal to all federal, state and local government web resources and services.